Terminal Aerodrome Forecast
Issued by NWS

Home | Current Version | Previous Version | Text Only | Print | Product List | Glossary On
Versions: 1 2 3 4 5 6 7 8 9 10 11 12 13 14 15 16
000
FTUS46 KSEW 251140
TAFHQM
TAF
KHQM 251140Z 2512/2612 25007KT P6SM VCSH SCT025 OVC050
      TEMPO 2512/2516 -SHRA BKN025 OVC050
     FM251800 23009KT P6SM VCSH SCT035 BKN050
     FM260000 19005KT P6SM FEW060 BKN200
     FM260600 10005KT P6SM SCT080 OVC150
     FM260900 07008KT P6SM BKN070 OVC120=

USA.gov is the U.S. government's official web portal to all federal, state and local government web resources and services.